VOZ1231 YMML-YBRK
Flight info
| Callsign | VOZ1231 |
|---|---|
| Flight time | 2h 29m |
| Altitude | 34000 |
| Route | MNG Q76 PORIV DCT UXILO DCT EML DCT RELEM |
| Aircraft | B738/M-SDE2E3FGHIRWXY/LB1 |
Departure
| Time | 2026-05-01 09:56 |
|---|---|
| Airport | Melbourne Airport (YMML) |
Arrival
| Time | 2026-05-01 12:26 |
|---|---|
| Airport | Rockhampton Airport (YBRK) |
| Time | Latitude | Longitude | Altitude | Speed | Heading |
|---|---|---|---|---|---|
| 2026-05-01 09:26 | -37.67140 | 144.84541 | 386 ft | 0 kts | 351° |
| 2026-05-01 09:45 | -37.67154 | 144.84543 | 386 ft | 4 kts | 351° |
| 2026-05-01 09:45 | -37.67199 | 144.84554 | 385 ft | 4 kts | 316° |
| 2026-05-01 09:45 | -37.67206 | 144.84577 | 385 ft | 4 kts | 261° |
| 2026-05-01 09:46 | -37.67203 | 144.84601 | 385 ft | 0 kts | 261° |
| 2026-05-01 09:49 | -37.67204 | 144.84593 | 385 ft | 2 kts | 261° |
| 2026-05-01 09:50 | -37.67208 | 144.84559 | 385 ft | 6 kts | 261° |
| 2026-05-01 09:50 | -37.67207 | 144.84483 | 384 ft | 11 kts | 283° |
| 2026-05-01 09:50 | -37.67202 | 144.84377 | 382 ft | 14 kts | 262° |
| 2026-05-01 09:50 | -37.67239 | 144.84289 | 380 ft | 12 kts | 206° |
| 2026-05-01 09:51 | -37.67332 | 144.84293 | 378 ft | 14 kts | 171° |
| 2026-05-01 09:51 | -37.67437 | 144.84313 | 376 ft | 16 kts | 171° |
| 2026-05-01 09:51 | -37.67557 | 144.84336 | 373 ft | 18 kts | 171° |
| 2026-05-01 09:51 | -37.67668 | 144.84359 | 369 ft | 13 kts | 170° |
| 2026-05-01 09:52 | -37.67758 | 144.84374 | 367 ft | 12 kts | 180° |
| 2026-05-01 09:52 | -37.67810 | 144.84352 | 364 ft | 8 kts | 212° |
| 2026-05-01 09:52 | -37.67851 | 144.84289 | 360 ft | 10 kts | 248° |
| 2026-05-01 09:52 | -37.67864 | 144.84205 | 360 ft | 9 kts | 261° |
| 2026-05-01 09:53 | -37.67868 | 144.84165 | 359 ft | 2 kts | 262° |
| 2026-05-01 09:53 | -37.67871 | 144.84143 | 361 ft | 3 kts | 262° |
| 2026-05-01 09:53 | -37.67872 | 144.84129 | 357 ft | 0 kts | 261° |
| 2026-05-01 09:53 | -37.67873 | 144.84126 | 357 ft | 1 kts | 261° |
| 2026-05-01 09:54 | -37.67875 | 144.84108 | 360 ft | 3 kts | 261° |
| 2026-05-01 09:54 | -37.67879 | 144.84076 | 356 ft | 5 kts | 262° |
| 2026-05-01 09:54 | -37.67884 | 144.84026 | 358 ft | 7 kts | 262° |
| 2026-05-01 09:54 | -37.67872 | 144.83972 | 355 ft | 7 kts | 318° |
| 2026-05-01 09:55 | -37.67843 | 144.83958 | 359 ft | 0 kts | 350° |
| 2026-05-01 09:55 | -37.67714 | 144.83934 | 361 ft | 52 kts | 352° |
| 2026-05-01 09:55 | -37.67128 | 144.83825 | 381 ft | 116 kts | 351° |
| 2026-05-01 09:56 | -37.66140 | 144.83643 | 429 ft | 167 kts | 355° |
| 2026-05-01 09:56 | -37.64964 | 144.83420 | 1028 ft | 176 kts | 353° |
| 2026-05-01 09:56 | -37.63723 | 144.83183 | 1758 ft | 180 kts | 355° |
| 2026-05-01 09:56 | -37.62470 | 144.82936 | 2492 ft | 190 kts | 355° |
| 2026-05-01 09:57 | -37.61075 | 144.82663 | 2790 ft | 212 kts | 354° |
| 2026-05-01 09:57 | -37.59572 | 144.82500 | 3330 ft | 219 kts | 8° |
| 2026-05-01 09:57 | -37.58061 | 144.82885 | 3944 ft | 230 kts | 18° |
| 2026-05-01 09:57 | -37.56552 | 144.83743 | 4552 ft | 244 kts | 25° |
| 2026-05-01 09:58 | -37.54994 | 144.84724 | 4973 ft | 267 kts | 24° |
| 2026-05-01 09:58 | -37.53195 | 144.85844 | 5014 ft | 301 kts | 25° |
| 2026-05-01 09:58 | -37.51262 | 144.87040 | 5015 ft | 318 kts | 25° |
| 2026-05-01 09:58 | -37.49262 | 144.88267 | 4996 ft | 320 kts | 24° |
| 2026-05-01 09:59 | -37.47252 | 144.89455 | 4990 ft | 319 kts | 22° |
| 2026-05-01 09:59 | -37.45200 | 144.90535 | 5001 ft | 321 kts | 21° |
| 2026-05-01 09:59 | -37.43125 | 144.91584 | 4994 ft | 322 kts | 21° |
| 2026-05-01 09:59 | -37.41048 | 144.92627 | 5115 ft | 320 kts | 20° |
| 2026-05-01 10:00 | -37.38968 | 144.93677 | 5817 ft | 324 kts | 20° |
| 2026-05-01 10:00 | -37.36871 | 144.94742 | 6635 ft | 327 kts | 20° |
| 2026-05-01 10:00 | -37.34747 | 144.95825 | 7386 ft | 332 kts | 20° |
| 2026-05-01 10:00 | -37.32590 | 144.96927 | 8114 ft | 337 kts | 20° |
| 2026-05-01 10:01 | -37.30405 | 144.98047 | 8847 ft | 342 kts | 20° |
| 2026-05-01 10:01 | -37.28186 | 144.99184 | 9580 ft | 346 kts | 20° |
| 2026-05-01 10:01 | -37.25940 | 145.00336 | 10314 ft | 351 kts | 20° |
| 2026-05-01 10:01 | -37.23667 | 145.01502 | 10927 ft | 357 kts | 20° |
| 2026-05-01 10:02 | -37.21344 | 145.02692 | 11521 ft | 362 kts | 20° |
| 2026-05-01 10:02 | -37.19001 | 145.03893 | 12178 ft | 366 kts | 20° |
| 2026-05-01 10:02 | -37.16636 | 145.05104 | 12818 ft | 370 kts | 21° |
| 2026-05-01 10:02 | -37.14241 | 145.06329 | 13424 ft | 374 kts | 21° |
| 2026-05-01 10:03 | -37.11816 | 145.07569 | 14011 ft | 379 kts | 21° |
| 2026-05-01 10:03 | -37.09364 | 145.08823 | 14546 ft | 382 kts | 21° |
| 2026-05-01 10:03 | -37.06899 | 145.10082 | 15118 ft | 384 kts | 20° |
| 2026-05-01 10:03 | -37.04421 | 145.11346 | 15849 ft | 381 kts | 20° |
| 2026-05-01 10:04 | -37.02006 | 145.12579 | 16922 ft | 370 kts | 20° |
| 2026-05-01 10:04 | -36.99629 | 145.13791 | 17696 ft | 370 kts | 20° |
| 2026-05-01 10:04 | -36.97230 | 145.15012 | 18223 ft | 375 kts | 20° |
| 2026-05-01 10:04 | -36.94793 | 145.16250 | 18717 ft | 380 kts | 20° |
| 2026-05-01 10:05 | -36.92331 | 145.17502 | 19237 ft | 383 kts | 20° |
| 2026-05-01 10:05 | -36.89821 | 145.18617 | 19761 ft | 384 kts | 12° |
| 2026-05-01 10:05 | -36.87192 | 145.19202 | 20282 ft | 385 kts | 4° |
| 2026-05-01 10:05 | -36.84516 | 145.19259 | 20785 ft | 386 kts | 356° |
| 2026-05-01 10:06 | -36.81825 | 145.19097 | 21274 ft | 389 kts | 356° |
| 2026-05-01 10:06 | -36.79111 | 145.18910 | 21750 ft | 392 kts | 355° |
| 2026-05-01 10:06 | -36.76376 | 145.18720 | 22215 ft | 395 kts | 355° |
| 2026-05-01 10:06 | -36.73621 | 145.18534 | 22670 ft | 398 kts | 356° |
| 2026-05-01 10:07 | -36.70845 | 145.18354 | 23140 ft | 401 kts | 356° |
| 2026-05-01 10:07 | -36.68050 | 145.18178 | 23590 ft | 404 kts | 356° |
| 2026-05-01 10:07 | -36.65235 | 145.18006 | 23984 ft | 406 kts | 356° |
| 2026-05-01 10:07 | -36.62399 | 145.17835 | 24331 ft | 409 kts | 356° |
| 2026-05-01 10:08 | -36.56683 | 145.17494 | 25073 ft | 413 kts | 355° |
| 2026-05-01 10:08 | -36.53842 | 145.17326 | 25436 ft | 415 kts | 355° |
| 2026-05-01 10:08 | -36.50946 | 145.17155 | 25785 ft | 418 kts | 355° |
| 2026-05-01 10:09 | -36.48035 | 145.16982 | 26127 ft | 420 kts | 355° |
| 2026-05-01 10:09 | -36.45110 | 145.16809 | 26459 ft | 422 kts | 355° |
| 2026-05-01 10:09 | -36.42168 | 145.16635 | 26796 ft | 424 kts | 355° |
| 2026-05-01 10:09 | -36.39213 | 145.16460 | 27127 ft | 426 kts | 355° |
| 2026-05-01 10:10 | -36.36245 | 145.16285 | 27445 ft | 428 kts | 355° |
| 2026-05-01 10:10 | -36.33262 | 145.16109 | 27746 ft | 430 kts | 355° |
| 2026-05-01 10:10 | -36.27254 | 145.15754 | 28349 ft | 434 kts | 355° |
| 2026-05-01 10:11 | -36.24232 | 145.15576 | 28628 ft | 436 kts | 355° |
| 2026-05-01 10:11 | -36.21185 | 145.15397 | 28843 ft | 440 kts | 355° |
| 2026-05-01 10:11 | -36.18116 | 145.15216 | 29119 ft | 442 kts | 355° |
| 2026-05-01 10:11 | -36.15049 | 145.15036 | 29525 ft | 441 kts | 354° |
| 2026-05-01 10:12 | -36.11984 | 145.14857 | 29853 ft | 442 kts | 354° |
| 2026-05-01 10:12 | -36.09902 | 145.14735 | 30050 ft | 443 kts | 354° |
| 2026-05-01 10:12 | -36.02724 | 145.14315 | 30781 ft | 443 kts | 354° |
| 2026-05-01 10:13 | -35.99652 | 145.14135 | 31082 ft | 443 kts | 354° |
| 2026-05-01 10:13 | -35.96573 | 145.13955 | 31381 ft | 443 kts | 354° |
| 2026-05-01 10:13 | -35.93498 | 145.13776 | 31728 ft | 441 kts | 354° |
| 2026-05-01 10:14 | -35.87386 | 145.13420 | 32415 ft | 438 kts | 354° |
| 2026-05-01 10:14 | -35.84347 | 145.13243 | 32707 ft | 438 kts | 354° |
| 2026-05-01 10:14 | -35.81307 | 145.13065 | 33026 ft | 437 kts | 354° |
| 2026-05-01 10:14 | -35.78283 | 145.12890 | 33438 ft | 433 kts | 354° |
| 2026-05-01 10:15 | -35.75283 | 145.12716 | 33830 ft | 430 kts | 354° |
| 2026-05-01 10:15 | -35.72296 | 145.12542 | 34144 ft | 429 kts | 354° |
| 2026-05-01 10:15 | -35.69313 | 145.12369 | 34393 ft | 429 kts | 354° |
| 2026-05-01 10:15 | -35.66330 | 145.12195 | 34603 ft | 429 kts | 354° |
| 2026-05-01 10:16 | -35.63345 | 145.12021 | 34806 ft | 430 kts | 354° |
| 2026-05-01 10:16 | -35.60359 | 145.11848 | 35012 ft | 430 kts | 354° |
| 2026-05-01 10:16 | -35.54369 | 145.11500 | 35365 ft | 431 kts | 354° |
| 2026-05-01 10:17 | -35.51371 | 145.11327 | 35581 ft | 431 kts | 354° |
| 2026-05-01 10:17 | -35.45448 | 145.10985 | 35989 ft | 431 kts | 354° |
| 2026-05-01 10:17 | -35.43005 | 145.10844 | 36137 ft | 431 kts | 353° |
| 2026-05-01 10:18 | -35.33953 | 145.10321 | 36213 ft | 436 kts | 353° |
| 2026-05-01 10:19 | -35.27920 | 145.09976 | 36213 ft | 433 kts | 353° |
| 2026-05-01 10:19 | -35.21917 | 145.09632 | 36216 ft | 431 kts | 353° |
| 2026-05-01 10:20 | -35.12960 | 145.09118 | 36214 ft | 429 kts | 353° |
| 2026-05-01 10:20 | -35.07004 | 145.08777 | 36217 ft | 428 kts | 353° |
| 2026-05-01 10:21 | -34.98072 | 145.08266 | 36207 ft | 429 kts | 353° |
| 2026-05-01 10:22 | -34.90087 | 145.08122 | 36221 ft | 434 kts | 359° |
| 2026-05-01 10:23 | -34.80008 | 145.09065 | 36224 ft | 439 kts | 0° |
| 2026-05-01 10:23 | -34.71837 | 145.09814 | 36216 ft | 441 kts | 359° |
| 2026-05-01 10:24 | -34.59540 | 145.10857 | 36222 ft | 444 kts | 359° |
| 2026-05-01 10:25 | -34.47256 | 145.11886 | 36214 ft | 443 kts | 359° |
| 2026-05-01 10:26 | -34.41109 | 145.12401 | 36221 ft | 442 kts | 359° |
| 2026-05-01 10:27 | -34.28875 | 145.13424 | 36217 ft | 439 kts | 359° |
| 2026-05-01 10:28 | -34.19738 | 145.14185 | 36217 ft | 438 kts | 359° |
| 2026-05-01 10:28 | -34.10624 | 145.14942 | 36211 ft | 437 kts | 359° |
| 2026-05-01 10:29 | -34.01521 | 145.15696 | 36219 ft | 438 kts | 359° |
| 2026-05-01 10:30 | -33.89350 | 145.16703 | 36220 ft | 439 kts | 358° |
| 2026-05-01 10:31 | -33.77125 | 145.17711 | 36222 ft | 441 kts | 358° |
| 2026-05-01 10:32 | -33.67919 | 145.18468 | 36222 ft | 443 kts | 358° |
| 2026-05-01 10:33 | -33.55633 | 145.19477 | 36222 ft | 445 kts | 358° |
| 2026-05-01 10:34 | -33.46368 | 145.20236 | 36224 ft | 445 kts | 358° |
| 2026-05-01 10:34 | -33.40189 | 145.20742 | 36223 ft | 445 kts | 358° |
| 2026-05-01 10:35 | -33.30921 | 145.21498 | 36225 ft | 445 kts | 358° |
| 2026-05-01 10:35 | -33.24735 | 145.22002 | 36217 ft | 445 kts | 358° |
| 2026-05-01 10:36 | -33.15483 | 145.22755 | 36227 ft | 444 kts | 358° |
| 2026-05-01 10:37 | -33.09315 | 145.23255 | 36230 ft | 444 kts | 358° |
| 2026-05-01 10:37 | -33.00070 | 145.24004 | 36229 ft | 444 kts | 358° |
| 2026-05-01 10:38 | -32.93909 | 145.24502 | 36228 ft | 444 kts | 358° |
| 2026-05-01 10:38 | -32.87750 | 145.25000 | 36228 ft | 443 kts | 358° |
| 2026-05-01 10:39 | -32.81596 | 145.25496 | 36225 ft | 443 kts | 358° |
| 2026-05-01 10:39 | -32.75444 | 145.25991 | 36233 ft | 443 kts | 358° |
| 2026-05-01 10:40 | -32.69299 | 145.26485 | 36230 ft | 443 kts | 358° |
| 2026-05-01 10:40 | -32.63145 | 145.26980 | 36224 ft | 443 kts | 359° |
| 2026-05-01 10:41 | -32.57029 | 145.27470 | 36233 ft | 444 kts | 359° |
| 2026-05-01 10:42 | -32.47784 | 145.28210 | 36241 ft | 444 kts | 359° |
| 2026-05-01 10:42 | -32.41605 | 145.28704 | 36220 ft | 445 kts | 359° |
| 2026-05-01 10:43 | -32.35418 | 145.29198 | 36232 ft | 446 kts | 359° |
| 2026-05-01 10:43 | -32.29214 | 145.29692 | 36235 ft | 447 kts | 359° |
| 2026-05-01 10:44 | -32.22999 | 145.30187 | 36235 ft | 449 kts | 359° |
| 2026-05-01 10:44 | -32.16761 | 145.30683 | 36228 ft | 450 kts | 358° |
| 2026-05-01 10:45 | -32.10508 | 145.31180 | 36240 ft | 451 kts | 358° |
| 2026-05-01 10:45 | -32.04239 | 145.31677 | 36237 ft | 452 kts | 358° |
| 2026-05-01 10:46 | -31.97962 | 145.32037 | 36231 ft | 451 kts | 355° |
| 2026-05-01 10:46 | -31.91692 | 145.32151 | 36241 ft | 451 kts | 355° |
| 2026-05-01 10:47 | -31.85414 | 145.32266 | 36237 ft | 451 kts | 355° |
| 2026-05-01 10:47 | -31.79136 | 145.32416 | 36236 ft | 452 kts | 355° |
| 2026-05-01 10:48 | -31.72851 | 145.32582 | 36232 ft | 452 kts | 355° |
| 2026-05-01 10:48 | -31.66567 | 145.32749 | 36238 ft | 452 kts | 355° |
| 2026-05-01 10:49 | -31.60321 | 145.32912 | 36242 ft | 452 kts | 355° |
| 2026-05-01 10:49 | -31.54028 | 145.33077 | 36225 ft | 452 kts | 354° |
| 2026-05-01 10:50 | -31.47737 | 145.33241 | 36240 ft | 453 kts | 354° |
| 2026-05-01 10:50 | -31.41435 | 145.33405 | 36241 ft | 453 kts | 354° |
| 2026-05-01 10:51 | -31.35122 | 145.33570 | 36239 ft | 454 kts | 354° |
| 2026-05-01 10:51 | -31.28801 | 145.33738 | 36229 ft | 455 kts | 354° |
| 2026-05-01 10:52 | -31.22471 | 145.33907 | 36243 ft | 455 kts | 354° |
| 2026-05-01 10:52 | -31.16126 | 145.34076 | 36241 ft | 456 kts | 354° |
| 2026-05-01 10:53 | -31.09776 | 145.34245 | 36236 ft | 457 kts | 354° |
| 2026-05-01 10:53 | -31.03407 | 145.34414 | 36231 ft | 458 kts | 354° |
| 2026-05-01 10:54 | -30.97185 | 145.34593 | 36254 ft | 430 kts | 354° |
| 2026-05-01 10:54 | -30.91286 | 145.34756 | 36222 ft | 425 kts | 353° |
| 2026-05-01 10:55 | -30.85305 | 145.34896 | 36248 ft | 435 kts | 353° |
| 2026-05-01 10:55 | -30.79189 | 145.35046 | 36247 ft | 444 kts | 354° |
| 2026-05-01 10:56 | -30.72949 | 145.35208 | 36245 ft | 453 kts | 354° |
| 2026-05-01 10:56 | -30.66599 | 145.35376 | 36242 ft | 461 kts | 354° |
| 2026-05-01 10:57 | -30.60167 | 145.35550 | 36221 ft | 463 kts | 354° |
| 2026-05-01 10:57 | -30.53726 | 145.35723 | 36230 ft | 464 kts | 354° |
| 2026-05-01 10:58 | -30.47258 | 145.35894 | 36231 ft | 465 kts | 354° |
| 2026-05-01 10:58 | -30.40782 | 145.36065 | 36213 ft | 465 kts | 354° |
| 2026-05-01 10:59 | -30.34314 | 145.36235 | 36220 ft | 464 kts | 354° |
| 2026-05-01 10:59 | -30.27859 | 145.36404 | 36225 ft | 463 kts | 354° |
| 2026-05-01 11:00 | -30.21417 | 145.36572 | 36225 ft | 462 kts | 354° |
| 2026-05-01 11:00 | -30.14997 | 145.36740 | 36211 ft | 461 kts | 354° |
| 2026-05-01 11:01 | -30.08576 | 145.36907 | 36227 ft | 461 kts | 354° |
| 2026-05-01 11:01 | -30.02221 | 145.37072 | 36227 ft | 460 kts | 354° |
| 2026-05-01 11:02 | -29.95816 | 145.37237 | 36228 ft | 460 kts | 354° |
| 2026-05-01 11:02 | -29.89412 | 145.37403 | 36227 ft | 460 kts | 353° |
| 2026-05-01 11:03 | -29.83006 | 145.37569 | 36229 ft | 461 kts | 353° |
| 2026-05-01 11:03 | -29.76598 | 145.37734 | 36226 ft | 461 kts | 353° |
| 2026-05-01 11:04 | -29.70173 | 145.37900 | 36211 ft | 462 kts | 353° |
| 2026-05-01 11:04 | -29.63740 | 145.38066 | 36226 ft | 463 kts | 353° |
| 2026-05-01 11:05 | -29.57299 | 145.38232 | 36224 ft | 463 kts | 353° |
| 2026-05-01 11:05 | -29.50848 | 145.38398 | 36224 ft | 464 kts | 353° |
| 2026-05-01 11:06 | -29.44387 | 145.38564 | 36212 ft | 464 kts | 353° |
| 2026-05-01 11:06 | -29.37923 | 145.38730 | 36220 ft | 465 kts | 353° |
| 2026-05-01 11:07 | -29.28219 | 145.38979 | 36221 ft | 465 kts | 353° |
| 2026-05-01 11:07 | -29.21755 | 145.39144 | 36203 ft | 465 kts | 353° |
| 2026-05-01 11:08 | -29.15284 | 145.39310 | 36216 ft | 465 kts | 353° |
| 2026-05-01 11:09 | -29.05623 | 145.39556 | 36215 ft | 465 kts | 353° |
| 2026-05-01 11:09 | -28.99151 | 145.39721 | 36207 ft | 465 kts | 353° |
| 2026-05-01 11:10 | -28.89453 | 145.39962 | 36213 ft | 465 kts | 353° |
| 2026-05-01 11:10 | -28.82981 | 145.40122 | 36218 ft | 465 kts | 353° |
| 2026-05-01 11:11 | -28.76508 | 145.40282 | 36209 ft | 465 kts | 353° |
| 2026-05-01 11:11 | -28.71082 | 145.40416 | 36195 ft | 465 kts | 353° |
| 2026-05-01 11:12 | -28.64611 | 145.40576 | 36206 ft | 466 kts | 352° |
| 2026-05-01 11:12 | -28.58170 | 145.40735 | 36213 ft | 466 kts | 352° |
| 2026-05-01 11:13 | -28.51674 | 145.40894 | 36210 ft | 467 kts | 353° |
| 2026-05-01 11:13 | -28.45170 | 145.41055 | 36212 ft | 468 kts | 353° |
| 2026-05-01 11:14 | -28.38661 | 145.41215 | 36215 ft | 468 kts | 353° |
| 2026-05-01 11:14 | -28.32152 | 145.41375 | 36208 ft | 468 kts | 353° |
| 2026-05-01 11:15 | -28.25636 | 145.41535 | 36202 ft | 468 kts | 352° |
| 2026-05-01 11:15 | -28.19120 | 145.41695 | 36206 ft | 468 kts | 352° |
| 2026-05-01 11:16 | -28.12604 | 145.41855 | 36206 ft | 468 kts | 352° |
| 2026-05-01 11:16 | -28.06084 | 145.42014 | 36214 ft | 469 kts | 352° |
| 2026-05-01 11:17 | -27.99570 | 145.42173 | 36202 ft | 469 kts | 352° |
| 2026-05-01 11:17 | -27.93046 | 145.42332 | 36207 ft | 469 kts | 352° |
| 2026-05-01 11:18 | -27.86515 | 145.42491 | 36205 ft | 470 kts | 352° |
| 2026-05-01 11:18 | -27.79979 | 145.42650 | 36205 ft | 470 kts | 352° |
| 2026-05-01 11:19 | -27.73437 | 145.42809 | 36196 ft | 470 kts | 352° |
| 2026-05-01 11:19 | -27.66935 | 145.42967 | 36201 ft | 471 kts | 352° |
| 2026-05-01 11:20 | -27.60382 | 145.43125 | 36198 ft | 471 kts | 352° |
| 2026-05-01 11:20 | -27.53831 | 145.43284 | 36187 ft | 472 kts | 352° |
| 2026-05-01 11:21 | -27.47260 | 145.43443 | 36195 ft | 472 kts | 353° |
| 2026-05-01 11:21 | -27.40699 | 145.43602 | 36196 ft | 472 kts | 353° |
| 2026-05-01 11:22 | -27.34126 | 145.43760 | 36197 ft | 473 kts | 353° |
| 2026-05-01 11:22 | -27.27547 | 145.43919 | 36182 ft | 473 kts | 353° |
| 2026-05-01 11:23 | -27.20969 | 145.44077 | 36198 ft | 473 kts | 353° |
| 2026-05-01 11:23 | -27.14391 | 145.44235 | 36192 ft | 473 kts | 353° |
| 2026-05-01 11:24 | -27.07811 | 145.44393 | 36194 ft | 473 kts | 353° |
| 2026-05-01 11:25 | -26.97949 | 145.44630 | 36188 ft | 473 kts | 353° |
| 2026-05-01 11:25 | -26.88078 | 145.44867 | 36190 ft | 473 kts | 353° |
| 2026-05-01 11:26 | -26.84771 | 145.45235 | 36174 ft | 485 kts | 5° |
| 2026-05-01 11:26 | -26.78463 | 145.48246 | 36174 ft | 506 kts | 31° |
| 2026-05-01 11:27 | -26.72875 | 145.53076 | 36199 ft | 508 kts | 34° |
| 2026-05-01 11:27 | -26.67340 | 145.58007 | 36186 ft | 509 kts | 34° |
| 2026-05-01 11:28 | -26.61769 | 145.62885 | 36186 ft | 508 kts | 33° |
| 2026-05-01 11:28 | -26.56181 | 145.67705 | 36182 ft | 508 kts | 33° |
| 2026-05-01 11:29 | -26.47784 | 145.74908 | 36185 ft | 507 kts | 33° |
| 2026-05-01 11:30 | -26.39389 | 145.82101 | 36182 ft | 507 kts | 33° |
| 2026-05-01 11:30 | -26.33792 | 145.86893 | 36181 ft | 507 kts | 33° |
| 2026-05-01 11:31 | -26.28234 | 145.91646 | 36189 ft | 507 kts | 33° |
| 2026-05-01 11:31 | -26.22642 | 145.96422 | 36186 ft | 507 kts | 33° |
| 2026-05-01 11:32 | -26.17040 | 146.01200 | 36186 ft | 507 kts | 33° |
| 2026-05-01 11:32 | -26.11435 | 146.05975 | 36192 ft | 507 kts | 33° |
| 2026-05-01 11:33 | -26.05824 | 146.10748 | 36190 ft | 508 kts | 33° |
| 2026-05-01 11:33 | -26.00209 | 146.15520 | 36193 ft | 508 kts | 33° |
| 2026-05-01 11:34 | -25.94595 | 146.20285 | 36187 ft | 508 kts | 33° |
| 2026-05-01 11:34 | -25.88969 | 146.25054 | 36191 ft | 509 kts | 33° |
| 2026-05-01 11:35 | -25.83339 | 146.29820 | 36189 ft | 509 kts | 33° |
| 2026-05-01 11:35 | -25.77706 | 146.34583 | 36195 ft | 509 kts | 33° |
| 2026-05-01 11:36 | -25.72067 | 146.39346 | 36189 ft | 509 kts | 33° |
| 2026-05-01 11:36 | -25.66432 | 146.44099 | 36188 ft | 509 kts | 33° |
| 2026-05-01 11:37 | -25.60789 | 146.48853 | 36192 ft | 510 kts | 33° |
| 2026-05-01 11:37 | -25.55141 | 146.53606 | 36180 ft | 510 kts | 33° |
| 2026-05-01 11:38 | -25.49533 | 146.58319 | 36199 ft | 509 kts | 33° |
| 2026-05-01 11:38 | -25.43888 | 146.63058 | 36201 ft | 509 kts | 33° |
| 2026-05-01 11:39 | -25.38211 | 146.67818 | 36202 ft | 509 kts | 33° |
| 2026-05-01 11:39 | -25.32602 | 146.72514 | 36185 ft | 509 kts | 33° |
| 2026-05-01 11:40 | -25.26959 | 146.77235 | 36205 ft | 509 kts | 33° |
| 2026-05-01 11:40 | -25.21316 | 146.81949 | 36206 ft | 508 kts | 33° |
| 2026-05-01 11:41 | -25.15671 | 146.86659 | 36215 ft | 509 kts | 34° |
| 2026-05-01 11:41 | -25.10022 | 146.91367 | 36198 ft | 509 kts | 34° |
| 2026-05-01 11:42 | -25.04382 | 146.96063 | 36213 ft | 508 kts | 34° |
| 2026-05-01 11:42 | -24.98733 | 147.00759 | 36209 ft | 509 kts | 34° |
| 2026-05-01 11:43 | -24.93083 | 147.05451 | 36212 ft | 508 kts | 34° |
| 2026-05-01 11:43 | -24.87435 | 147.10137 | 36214 ft | 508 kts | 34° |
| 2026-05-01 11:44 | -24.78961 | 147.17155 | 36221 ft | 508 kts | 34° |
| 2026-05-01 11:44 | -24.73309 | 147.21830 | 36216 ft | 508 kts | 34° |
| 2026-05-01 11:45 | -24.67660 | 147.26497 | 36197 ft | 508 kts | 34° |
| 2026-05-01 11:45 | -24.62006 | 147.31162 | 36211 ft | 508 kts | 34° |
| 2026-05-01 11:46 | -24.56353 | 147.35822 | 36210 ft | 508 kts | 34° |
| 2026-05-01 11:46 | -24.50698 | 147.40477 | 36209 ft | 508 kts | 34° |
| 2026-05-01 11:47 | -24.45041 | 147.45129 | 36198 ft | 508 kts | 34° |
| 2026-05-01 11:47 | -24.39384 | 147.49775 | 36219 ft | 508 kts | 34° |
| 2026-05-01 11:48 | -24.33728 | 147.54416 | 36199 ft | 508 kts | 34° |
| 2026-05-01 11:48 | -24.28078 | 147.59046 | 36197 ft | 507 kts | 34° |
| 2026-05-01 11:49 | -24.22457 | 147.63647 | 36183 ft | 507 kts | 34° |
| 2026-05-01 11:49 | -24.16810 | 147.68264 | 36203 ft | 507 kts | 34° |
| 2026-05-01 11:50 | -24.11150 | 147.72887 | 36192 ft | 507 kts | 34° |
| 2026-05-01 11:50 | -24.05494 | 147.77501 | 36193 ft | 507 kts | 34° |
| 2026-05-01 11:51 | -23.99838 | 147.82110 | 36190 ft | 507 kts | 34° |
| 2026-05-01 11:51 | -23.94187 | 147.86709 | 36187 ft | 507 kts | 34° |
| 2026-05-01 11:52 | -23.88528 | 147.91311 | 36194 ft | 507 kts | 34° |
| 2026-05-01 11:52 | -23.82867 | 147.95909 | 36179 ft | 507 kts | 34° |
| 2026-05-01 11:53 | -23.77203 | 148.00504 | 36181 ft | 507 kts | 34° |
| 2026-05-01 11:53 | -23.71539 | 148.05095 | 36185 ft | 507 kts | 34° |
| 2026-05-01 11:54 | -23.65872 | 148.09684 | 36180 ft | 507 kts | 34° |
| 2026-05-01 11:54 | -23.60245 | 148.14338 | 36163 ft | 509 kts | 41° |
| 2026-05-01 11:55 | -23.57931 | 148.17247 | 36191 ft | 510 kts | 57° |
| 2026-05-01 11:55 | -23.56243 | 148.20635 | 36178 ft | 509 kts | 70° |
| 2026-05-01 11:55 | -23.55273 | 148.24262 | 36183 ft | 503 kts | 83° |
| 2026-05-01 11:55 | -23.54670 | 148.28017 | 36198 ft | 503 kts | 83° |
| 2026-05-01 11:56 | -23.53488 | 148.35547 | 36184 ft | 505 kts | 83° |
| 2026-05-01 11:56 | -23.52246 | 148.43082 | 36177 ft | 506 kts | 83° |
| 2026-05-01 11:57 | -23.51165 | 148.49402 | 36186 ft | 507 kts | 82° |
| 2026-05-01 11:57 | -23.50297 | 148.54411 | 35875 ft | 513 kts | 83° |
| 2026-05-01 11:57 | -23.49633 | 148.58240 | 35289 ft | 514 kts | 83° |
| 2026-05-01 11:58 | -23.48968 | 148.62058 | 34819 ft | 511 kts | 84° |
| 2026-05-01 11:58 | -23.48307 | 148.65845 | 34393 ft | 507 kts | 84° |
| 2026-05-01 11:58 | -23.46998 | 148.73349 | 33439 ft | 500 kts | 84° |
| 2026-05-01 11:59 | -23.46351 | 148.77055 | 33009 ft | 496 kts | 84° |
| 2026-05-01 11:59 | -23.45709 | 148.80735 | 32567 ft | 492 kts | 84° |
| 2026-05-01 11:59 | -23.45072 | 148.84383 | 32136 ft | 488 kts | 84° |
| 2026-05-01 12:00 | -23.43812 | 148.91579 | 31281 ft | 480 kts | 83° |
| 2026-05-01 12:00 | -23.43397 | 148.93943 | 31015 ft | 478 kts | 83° |
| 2026-05-01 12:00 | -23.41951 | 149.02169 | 30020 ft | 469 kts | 82° |
| 2026-05-01 12:01 | -23.41545 | 149.04476 | 29722 ft | 467 kts | 82° |
| 2026-05-01 12:01 | -23.40935 | 149.07932 | 29256 ft | 463 kts | 82° |
| 2026-05-01 12:01 | -23.40331 | 149.11348 | 28810 ft | 458 kts | 82° |
| 2026-05-01 12:01 | -23.39731 | 149.14739 | 28376 ft | 454 kts | 82° |
| 2026-05-01 12:02 | -23.39134 | 149.18106 | 27943 ft | 450 kts | 82° |
| 2026-05-01 12:02 | -23.38545 | 149.21428 | 27543 ft | 446 kts | 82° |
| 2026-05-01 12:02 | -23.37959 | 149.24727 | 27127 ft | 442 kts | 82° |
| 2026-05-01 12:02 | -23.37378 | 149.27998 | 26719 ft | 438 kts | 82° |
| 2026-05-01 12:03 | -23.36800 | 149.31244 | 26313 ft | 435 kts | 82° |
| 2026-05-01 12:03 | -23.36226 | 149.34466 | 25896 ft | 432 kts | 82° |
| 2026-05-01 12:03 | -23.35655 | 149.37664 | 25506 ft | 429 kts | 82° |
| 2026-05-01 12:03 | -23.35088 | 149.40843 | 25110 ft | 427 kts | 82° |
| 2026-05-01 12:04 | -23.34522 | 149.44005 | 24683 ft | 425 kts | 82° |
| 2026-05-01 12:04 | -23.33959 | 149.47151 | 24274 ft | 423 kts | 81° |
| 2026-05-01 12:04 | -23.33399 | 149.50277 | 23867 ft | 421 kts | 81° |
| 2026-05-01 12:04 | -23.32839 | 149.53395 | 23408 ft | 419 kts | 81° |
| 2026-05-01 12:05 | -23.32282 | 149.56492 | 22975 ft | 415 kts | 81° |
| 2026-05-01 12:05 | -23.31181 | 149.62606 | 22168 ft | 408 kts | 81° |
| 2026-05-01 12:05 | -23.30636 | 149.65623 | 21767 ft | 405 kts | 81° |
| 2026-05-01 12:06 | -23.30096 | 149.68615 | 21379 ft | 401 kts | 81° |
| 2026-05-01 12:06 | -23.29560 | 149.71581 | 20990 ft | 398 kts | 81° |
| 2026-05-01 12:06 | -23.29028 | 149.74520 | 20595 ft | 395 kts | 81° |
| 2026-05-01 12:06 | -23.28499 | 149.77441 | 20215 ft | 392 kts | 81° |
| 2026-05-01 12:07 | -23.27973 | 149.80340 | 19837 ft | 389 kts | 81° |
| 2026-05-01 12:07 | -23.27450 | 149.83219 | 19458 ft | 387 kts | 81° |
| 2026-05-01 12:07 | -23.26930 | 149.86085 | 19059 ft | 385 kts | 81° |
| 2026-05-01 12:07 | -23.26411 | 149.88935 | 18686 ft | 383 kts | 80° |
| 2026-05-01 12:08 | -23.25895 | 149.91770 | 18258 ft | 381 kts | 80° |
| 2026-05-01 12:08 | -23.25381 | 149.94588 | 17847 ft | 378 kts | 80° |
| 2026-05-01 12:08 | -23.24871 | 149.97381 | 17451 ft | 375 kts | 80° |
| 2026-05-01 12:08 | -23.24365 | 150.00148 | 17061 ft | 371 kts | 80° |
| 2026-05-01 12:09 | -23.23864 | 150.02891 | 16679 ft | 368 kts | 80° |
| 2026-05-01 12:09 | -23.23366 | 150.05608 | 16307 ft | 365 kts | 80° |
| 2026-05-01 12:09 | -23.22873 | 150.08302 | 15939 ft | 362 kts | 80° |
| 2026-05-01 12:09 | -23.22383 | 150.10974 | 15572 ft | 359 kts | 80° |
| 2026-05-01 12:10 | -23.21898 | 150.13617 | 15209 ft | 356 kts | 80° |
| 2026-05-01 12:10 | -23.21454 | 150.18914 | 14433 ft | 350 kts | 93° |
| 2026-05-01 12:10 | -23.21537 | 150.21554 | 14039 ft | 349 kts | 94° |
| 2026-05-01 12:11 | -23.21713 | 150.26750 | 13230 ft | 343 kts | 93° |
| 2026-05-01 12:11 | -23.21781 | 150.29327 | 12865 ft | 340 kts | 92° |
| 2026-05-01 12:11 | -23.21837 | 150.31884 | 12483 ft | 337 kts | 92° |
| 2026-05-01 12:12 | -23.21887 | 150.34419 | 12115 ft | 334 kts | 92° |
| 2026-05-01 12:12 | -23.21932 | 150.36932 | 11748 ft | 331 kts | 92° |
| 2026-05-01 12:12 | -23.21975 | 150.39420 | 11394 ft | 328 kts | 92° |
| 2026-05-01 12:12 | -23.22016 | 150.41899 | 11037 ft | 326 kts | 92° |
| 2026-05-01 12:13 | -23.22056 | 150.44349 | 10684 ft | 324 kts | 91° |
| 2026-05-01 12:13 | -23.22096 | 150.46775 | 10422 ft | 318 kts | 92° |
| 2026-05-01 12:13 | -23.22133 | 150.49146 | 10169 ft | 307 kts | 92° |
| 2026-05-01 12:13 | -23.22169 | 150.51417 | 10005 ft | 294 kts | 92° |
| 2026-05-01 12:14 | -23.22204 | 150.53603 | 9704 ft | 286 kts | 92° |
| 2026-05-01 12:14 | -23.22237 | 150.55750 | 9436 ft | 283 kts | 92° |
| 2026-05-01 12:14 | -23.22298 | 150.57842 | 9341 ft | 268 kts | 99° |
| 2026-05-01 12:14 | -23.22941 | 150.59650 | 9208 ft | 250 kts | 128° |
| 2026-05-01 12:15 | -23.24147 | 150.60914 | 9130 ft | 233 kts | 147° |
| 2026-05-01 12:15 | -23.25559 | 150.61638 | 9050 ft | 217 kts | 160° |
| 2026-05-01 12:15 | -23.26927 | 150.62179 | 8935 ft | 203 kts | 160° |
| 2026-05-01 12:15 | -23.28225 | 150.62686 | 8689 ft | 197 kts | 160° |
| 2026-05-01 12:16 | -23.29522 | 150.63192 | 8326 ft | 198 kts | 160° |
| 2026-05-01 12:16 | -23.30809 | 150.63697 | 8014 ft | 196 kts | 159° |
| 2026-05-01 12:16 | -23.32082 | 150.64197 | 7685 ft | 192 kts | 159° |
| 2026-05-01 12:16 | -23.33332 | 150.64689 | 7308 ft | 189 kts | 159° |
| 2026-05-01 12:17 | -23.34556 | 150.65172 | 7056 ft | 187 kts | 159° |
| 2026-05-01 12:17 | -23.35784 | 150.65657 | 6859 ft | 189 kts | 158° |
| 2026-05-01 12:17 | -23.37005 | 150.66140 | 6651 ft | 189 kts | 158° |
| 2026-05-01 12:17 | -23.38244 | 150.66631 | 6434 ft | 190 kts | 158° |
| 2026-05-01 12:18 | -23.39493 | 150.67125 | 6221 ft | 191 kts | 158° |
| 2026-05-01 12:18 | -23.40740 | 150.67619 | 6003 ft | 190 kts | 158° |
| 2026-05-01 12:18 | -23.41953 | 150.68098 | 5777 ft | 181 kts | 158° |
| 2026-05-01 12:18 | -23.43185 | 150.68328 | 5509 ft | 186 kts | 189° |
| 2026-05-01 12:19 | -23.44408 | 150.67828 | 5363 ft | 191 kts | 196° |
| 2026-05-01 12:19 | -23.45674 | 150.67340 | 5152 ft | 194 kts | 194° |
| 2026-05-01 12:19 | -23.46947 | 150.66871 | 4981 ft | 190 kts | 193° |
| 2026-05-01 12:19 | -23.48190 | 150.66421 | 4866 ft | 187 kts | 193° |
| 2026-05-01 12:20 | -23.49429 | 150.65978 | 4782 ft | 188 kts | 193° |
| 2026-05-01 12:20 | -23.50673 | 150.65536 | 4696 ft | 188 kts | 193° |
| 2026-05-01 12:20 | -23.51861 | 150.64952 | 4534 ft | 192 kts | 217° |
| 2026-05-01 12:20 | -23.52491 | 150.63666 | 4130 ft | 198 kts | 251° |
| 2026-05-01 12:21 | -23.52855 | 150.62228 | 3860 ft | 192 kts | 248° |
| 2026-05-01 12:21 | -23.53264 | 150.60784 | 3521 ft | 200 kts | 248° |
| 2026-05-01 12:21 | -23.53679 | 150.59359 | 3401 ft | 196 kts | 247° |
| 2026-05-01 12:21 | -23.54094 | 150.57958 | 3328 ft | 195 kts | 248° |
| 2026-05-01 12:22 | -23.54476 | 150.56530 | 3247 ft | 199 kts | 259° |
| 2026-05-01 12:22 | -23.54170 | 150.55078 | 3165 ft | 203 kts | 307° |
| 2026-05-01 12:22 | -23.53023 | 150.54213 | 2988 ft | 203 kts | 343° |
| 2026-05-01 12:22 | -23.51695 | 150.53648 | 2714 ft | 206 kts | 340° |
| 2026-05-01 12:23 | -23.50375 | 150.53048 | 2429 ft | 204 kts | 340° |
| 2026-05-01 12:23 | -23.49073 | 150.52463 | 2131 ft | 200 kts | 341° |
| 2026-05-01 12:23 | -23.47792 | 150.51891 | 1883 ft | 198 kts | 342° |
| 2026-05-01 12:23 | -23.46537 | 150.51334 | 1619 ft | 191 kts | 341° |
| 2026-05-01 12:24 | -23.45358 | 150.50808 | 1395 ft | 177 kts | 341° |
| 2026-05-01 12:24 | -23.44252 | 150.50316 | 1149 ft | 169 kts | 341° |
| 2026-05-01 12:24 | -23.43166 | 150.49835 | 940 ft | 167 kts | 340° |
| 2026-05-01 12:24 | -23.42106 | 150.49362 | 722 ft | 161 kts | 339° |
| 2026-05-01 12:25 | -23.41085 | 150.48908 | 505 ft | 158 kts | 338° |
| 2026-05-01 12:25 | -23.39076 | 150.48005 | 94 ft | 155 kts | 338° |
| 2026-05-01 12:25 | -23.38181 | 150.47615 | 39 ft | 96 kts | 338° |
| 2026-05-01 12:26 | -23.37793 | 150.47441 | 39 ft | 39 kts | 338° |
| 2026-05-01 12:26 | -23.37666 | 150.47499 | 42 ft | 12 kts | 102° |
| 2026-05-01 12:26 | -23.37682 | 150.47577 | 42 ft | 7 kts | 101° |
| 2026-05-01 12:27 | -23.37694 | 150.47625 | 41 ft | 7 kts | 116° |
| 2026-05-01 12:27 | -23.37769 | 150.47674 | 38 ft | 5 kts | 159° |
| 2026-05-01 12:28 | -23.37834 | 150.47702 | 39 ft | 5 kts | 158° |
| 2026-05-01 12:28 | -23.37863 | 150.47715 | 36 ft | 1 kts | 155° |
| 2026-05-01 12:28 | -23.37880 | 150.47733 | 38 ft | 2 kts | 121° |
| 2026-05-01 12:29 | -23.37884 | 150.47748 | 38 ft | 2 kts | 105° |
| 2026-05-01 12:29 | -23.37888 | 150.47764 | 39 ft | 2 kts | 103° |
| 2026-05-01 12:29 | -23.37891 | 150.47781 | 39 ft | 0 kts | 103° |